sensor_id;sensor_type;location;lat;lon;timestamp;temperature;humidity
3944;DHT22;1986;52.546;13.428;2022-10-16T00:01:34;15.50;99.90
3944;DHT22;1986;52.546;13.428;2022-10-16T00:04:02;15.60;99.90
3944;DHT22;1986;52.546;13.428;2022-10-16T00:06:31;15.70;99.90
3944;DHT22;1986;52.546;13.428;2022-10-16T00:08:59;15.70;99.90
3944;DHT22;1986;52.546;13.428;2022-10-16T00:11:31;15.80;99.90
3944;DHT22;1986;52.546;13.428;2022-10-16T00:14:05;15.80;99.90
3944;DHT22;1986;52.546;13.428;2022-10-16T00:16:33;15.90;99.90
3944;DHT22;1986;52.546;13.428;2022-10-16T00:19:02;15.90;99.90
3944;DHT22;1986;52.546;13.428;2022-10-16T00:21:31;16.00;99.90
3944;DHT22;1986;52.546;13.428;2022-10-16T00:24:00;16.00;99.90
3944;DHT22;1986;52.546;13.428;2022-10-16T00:26:29;16.10;99.90
3944;DHT22;1986;52.546;13.428;2022-10-16T00:28:56;16.10;99.90
3944;DHT22;1986;52.546;13.428;2022-10-16T00:31:24;16.10;99.90
3944;DHT22;1986;52.546;13.428;2022-10-16T00:33:53;16.10;99.90
3944;DHT22;1986;52.546;13.428;2022-10-16T00:36:22;16.10;99.90
3944;DHT22;1986;52.546;13.428;2022-10-16T00:38:50;16.10;99.90
3944;DHT22;1986;52.546;13.428;2022-10-16T00:41:20;16.10;99.90
3944;DHT22;1986;52.546;13.428;2022-10-16T00:43:50;16.10;99.90
3944;DHT22;1986;52.546;13.428;2022-10-16T00:46:21;16.10;99.90
3944;DHT22;1986;52.546;13.428;2022-10-16T00:48:54;16.10;99.90
3944;DHT22;1986;52.546;13.428;2022-10-16T00:51:25;16.10;99.90
3944;DHT22;1986;52.546;13.428;2022-10-16T00:53:56;16.10;99.90
3944;DHT22;1986;52.546;13.428;2022-10-16T00:56:23;16.10;99.90
3944;DHT22;1986;52.546;13.428;2022-10-16T00:58:50;16.10;99.90
3944;DHT22;1986;52.546;13.428;2022-10-16T01:01:17;16.10;99.90
3944;DHT22;1986;52.546;13.428;2022-10-16T01:03:45;16.10;99.90
3944;DHT22;1986;52.546;13.428;2022-10-16T01:06:22;16.10;99.90
3944;DHT22;1986;52.546;13.428;2022-10-16T01:09:08;16.10;99.90
3944;DHT22;1986;52.546;13.428;2022-10-16T01:11:44;16.10;99.90
3944;DHT22;1986;52.546;13.428;2022-10-16T01:14:19;16.10;99.90
3944;DHT22;1986;52.546;13.428;2022-10-16T01:16:53;16.10;99.90
3944;DHT22;1986;52.546;13.428;2022-10-16T01:19:27;16.10;99.90
3944;DHT22;1986;52.546;13.428;2022-10-16T01:22:03;16.10;99.90
3944;DHT22;1986;52.546;13.428;2022-10-16T01:24:35;16.10;99.90
3944;DHT22;1986;52.546;13.428;2022-10-16T01:27:15;16.10;99.90
3944;DHT22;1986;52.546;13.428;2022-10-16T01:29:50;16.10;99.90
3944;DHT22;1986;52.546;13.428;2022-10-16T01:32:23;16.00;99.90
3944;DHT22;1986;52.546;13.428;2022-10-16T01:34:55;16.00;99.90
3944;DHT22;1986;52.546;13.428;2022-10-16T01:37:32;16.00;99.90
3944;DHT22;1986;52.546;13.428;2022-10-16T01:40:03;16.00;99.90
3944;DHT22;1986;52.546;13.428;2022-10-16T01:42:35;16.00;99.90
3944;DHT22;1986;52.546;13.428;2022-10-16T01:45:04;16.00;99.90
3944;DHT22;1986;52.546;13.428;2022-10-16T01:47:35;16.00;99.90
3944;DHT22;1986;52.546;13.428;2022-10-16T01:50:04;16.00;99.90
3944;DHT22;1986;52.546;13.428;2022-10-16T01:52:37;16.10;99.90
3944;DHT22;1986;52.546;13.428;2022-10-16T01:55:06;16.00;99.90
3944;DHT22;1986;52.546;13.428;2022-10-16T01:57:38;16.00;99.90
3944;DHT22;1986;52.546;13.428;2022-10-16T02:00:10;16.00;99.90
3944;DHT22;1986;52.546;13.428;2022-10-16T02:02:38;16.00;99.90
3944;DHT22;1986;52.546;13.428;2022-10-16T02:05:12;16.00;99.90
3944;DHT22;1986;52.546;13.428;2022-10-16T02:07:42;16.00;99.90
3944;DHT22;1986;52.546;13.428;2022-10-16T02:10:09;16.10;99.90
3944;DHT22;1986;52.546;13.428;2022-10-16T02:12:41;16.10;99.90
3944;DHT22;1986;52.546;13.428;2022-10-16T02:15:09;16.10;99.90
3944;DHT22;1986;52.546;13.428;2022-10-16T02:17:35;16.10;99.90
3944;DHT22;1986;52.546;13.428;2022-10-16T02:20:03;16.10;99.90
3944;DHT22;1986;52.546;13.428;2022-10-16T02:22:33;16.10;99.90
3944;DHT22;1986;52.546;13.428;2022-10-16T02:25:06;16.10;99.90
3944;DHT22;1986;52.546;13.428;2022-10-16T02:27:38;16.10;99.90
3944;DHT22;1986;52.546;13.428;2022-10-16T02:30:10;16.10;99.90
3944;DHT22;1986;52.546;13.428;2022-10-16T02:32:42;16.10;99.90
3944;DHT22;1986;52.546;13.428;2022-10-16T02:35:11;16.10;99.90
3944;DHT22;1986;52.546;13.428;2022-10-16T02:37:40;16.10;99.90
3944;DHT22;1986;52.546;13.428;2022-10-16T02:40:08;16.00;99.90
3944;DHT22;1986;52.546;13.428;2022-10-16T02:42:40;16.00;99.90
3944;DHT22;1986;52.546;13.428;2022-10-16T02:45:09;16.10;99.90
3944;DHT22;1986;52.546;13.428;2022-10-16T02:47:36;16.00;99.90
3944;DHT22;1986;52.546;13.428;2022-10-16T02:50:03;16.00;99.90
3944;DHT22;1986;52.546;13.428;2022-10-16T02:52:34;16.00;99.90
3944;DHT22;1986;52.546;13.428;2022-10-16T02:55:03;16.00;99.90
3944;DHT22;1986;52.546;13.428;2022-10-16T02:57:30;16.00;99.90
3944;DHT22;1986;52.546;13.428;2022-10-16T02:59:58;16.00;99.90
3944;DHT22;1986;52.546;13.428;2022-10-16T03:02:25;16.00;99.90
3944;DHT22;1986;52.546;13.428;2022-10-16T03:04:52;15.90;99.90
3944;DHT22;1986;52.546;13.428;2022-10-16T03:07:19;15.90;99.90
3944;DHT22;1986;52.546;13.428;2022-10-16T03:09:46;15.90;99.90
3944;DHT22;1986;52.546;13.428;2022-10-16T03:12:13;15.90;99.90
3944;DHT22;1986;52.546;13.428;2022-10-16T03:14:39;15.80;99.90
3944;DHT22;1986;52.546;13.428;2022-10-16T03:17:10;15.80;99.90
3944;DHT22;1986;52.546;13.428;2022-10-16T03:19:40;15.80;99.90
3944;DHT22;1986;52.546;13.428;2022-10-16T03:22:09;15.80;99.90
3944;DHT22;1986;52.546;13.428;2022-10-16T03:24:36;15.70;99.90
3944;DHT22;1986;52.546;13.428;2022-10-16T03:27:03;15.80;99.90
3944;DHT22;1986;52.546;13.428;2022-10-16T03:29:30;15.70;99.90
3944;DHT22;1986;52.546;13.428;2022-10-16T03:31:58;15.70;99.90
3944;DHT22;1986;52.546;13.428;2022-10-16T03:34:26;15.70;99.90
3944;DHT22;1986;52.546;13.428;2022-10-16T03:36:54;15.70;99.90
3944;DHT22;1986;52.546;13.428;2022-10-16T03:39:21;15.70;99.90
3944;DHT22;1986;52.546;13.428;2022-10-16T03:41:47;15.60;99.90
3944;DHT22;1986;52.546;13.428;2022-10-16T03:44:15;15.60;99.90
3944;DHT22;1986;52.546;13.428;2022-10-16T03:46:42;15.60;99.90
3944;DHT22;1986;52.546;13.428;2022-10-16T03:49:09;15.60;99.90
3944;DHT22;1986;52.546;13.428;2022-10-16T03:51:40;15.50;99.90
3944;DHT22;1986;52.546;13.428;2022-10-16T03:54:07;15.50;99.90
3944;DHT22;1986;52.546;13.428;2022-10-16T03:56:34;15.50;99.90
3944;DHT22;1986;52.546;13.428;2022-10-16T03:59:01;15.40;99.90
3944;DHT22;1986;52.546;13.428;2022-10-16T04:01:28;15.50;99.90
3944;DHT22;1986;52.546;13.428;2022-10-16T04:03:54;15.50;99.90
3944;DHT22;1986;52.546;13.428;2022-10-16T04:06:21;15.50;99.90
3944;DHT22;1986;52.546;13.428;2022-10-16T04:08:50;15.50;99.90
3944;DHT22;1986;52.546;13.428;2022-10-16T04:11:17;15.50;99.90
3944;DHT22;1986;52.546;13.428;2022-10-16T04:13:44;15.50;99.90
3944;DHT22;1986;52.546;13.428;2022-10-16T04:16:12;15.50;99.90
3944;DHT22;1986;52.546;13.428;2022-10-16T04:18:40;15.50;99.90
3944;DHT22;1986;52.546;13.428;2022-10-16T04:21:07;15.50;99.90
3944;DHT22;1986;52.546;13.428;2022-10-16T04:23:35;15.40;99.90
3944;DHT22;1986;52.546;13.428;2022-10-16T04:26:04;15.40;99.90
3944;DHT22;1986;52.546;13.428;2022-10-16T04:28:31;15.40;99.90
3944;DHT22;1986;52.546;13.428;2022-10-16T04:30:58;15.40;99.90
3944;DHT22;1986;52.546;13.428;2022-10-16T04:33:24;15.50;99.90
3944;DHT22;1986;52.546;13.428;2022-10-16T04:35:56;15.40;99.90
3944;DHT22;1986;52.546;13.428;2022-10-16T04:38:23;15.40;99.90
3944;DHT22;1986;52.546;13.428;2022-10-16T04:40:52;15.50;99.90
3944;DHT22;1986;52.546;13.428;2022-10-16T04:43:21;15.40;99.90
3944;DHT22;1986;52.546;13.428;2022-10-16T04:45:51;15.40;99.90
3944;DHT22;1986;52.546;13.428;2022-10-16T04:48:20;15.40;99.90
3944;DHT22;1986;52.546;13.428;2022-10-16T04:50:47;15.40;99.90
3944;DHT22;1986;52.546;13.428;2022-10-16T04:53:17;15.40;99.90
3944;DHT22;1986;52.546;13.428;2022-10-16T04:55:44;15.40;99.90
3944;DHT22;1986;52.546;13.428;2022-10-16T04:58:13;15.30;99.90
3944;DHT22;1986;52.546;13.428;2022-10-16T05:00:41;15.30;99.90
3944;DHT22;1986;52.546;13.428;2022-10-16T05:03:08;15.30;99.90
3944;DHT22;1986;52.546;13.428;2022-10-16T05:05:35;15.20;99.90
3944;DHT22;1986;52.546;13.428;2022-10-16T05:08:04;15.10;99.90
3944;DHT22;1986;52.546;13.428;2022-10-16T05:10:30;15.00;99.90
3944;DHT22;1986;52.546;13.428;2022-10-16T05:12:57;14.90;99.90
3944;DHT22;1986;52.546;13.428;2022-10-16T05:15:32;14.90;99.90
3944;DHT22;1986;52.546;13.428;2022-10-16T05:18:00;14.90;99.90
3944;DHT22;1986;52.546;13.428;2022-10-16T05:20:28;14.90;99.90
3944;DHT22;1986;52.546;13.428;2022-10-16T05:22:55;14.80;99.90
3944;DHT22;1986;52.546;13.428;2022-10-16T05:25:22;14.90;99.90
3944;DHT22;1986;52.546;13.428;2022-10-16T05:27:49;14.80;99.90
3944;DHT22;1986;52.546;13.428;2022-10-16T05:30:16;14.80;99.90
3944;DHT22;1986;52.546;13.428;2022-10-16T05:32:47;14.90;99.90
3944;DHT22;1986;52.546;13.428;2022-10-16T05:35:16;14.80;99.90
3944;DHT22;1986;52.546;13.428;2022-10-16T05:37:44;14.70;99.90
3944;DHT22;1986;52.546;13.428;2022-10-16T05:40:12;14.60;99.90
3944;DHT22;1986;52.546;13.428;2022-10-16T05:42:42;14.70;99.90
3944;DHT22;1986;52.546;13.428;2022-10-16T05:45:11;14.70;99.90
3944;DHT22;1986;52.546;13.428;2022-10-16T05:47:41;14.80;99.90
3944;DHT22;1986;52.546;13.428;2022-10-16T05:50:09;14.90;99.90
3944;DHT22;1986;52.546;13.428;2022-10-16T05:52:37;14.90;99.90
3944;DHT22;1986;52.546;13.428;2022-10-16T05:55:05;14.90;99.90
3944;DHT22;1986;52.546;13.428;2022-10-16T05:57:32;14.90;99.90
3944;DHT22;1986;52.546;13.428;2022-10-16T05:59:58;14.90;99.90
3944;DHT22;1986;52.546;13.428;2022-10-16T06:02:29;15.00;99.90
3944;DHT22;1986;52.546;13.428;2022-10-16T06:04:56;14.90;99.90
3944;DHT22;1986;52.546;13.428;2022-10-16T06:07:23;15.00;99.90
3944;DHT22;1986;52.546;13.428;2022-10-16T06:09:52;14.90;99.90
3944;DHT22;1986;52.546;13.428;2022-10-16T06:12:20;14.90;99.90
3944;DHT22;1986;52.546;13.428;2022-10-16T06:14:47;14.90;99.90
3944;DHT22;1986;52.546;13.428;2022-10-16T06:17:14;14.90;99.90
3944;DHT22;1986;52.546;13.428;2022-10-16T06:19:42;14.80;99.90
3944;DHT22;1986;52.546;13.428;2022-10-16T06:22:09;14.90;99.90
3944;DHT22;1986;52.546;13.428;2022-10-16T06:24:36;14.90;99.90
3944;DHT22;1986;52.546;13.428;2022-10-16T06:27:06;14.80;99.90
3944;DHT22;1986;52.546;13.428;2022-10-16T06:29:34;14.80;99.90
3944;DHT22;1986;52.546;13.428;2022-10-16T06:32:01;14.70;99.90
3944;DHT22;1986;52.546;13.428;2022-10-16T06:34:30;14.70;99.90
3944;DHT22;1986;52.546;13.428;2022-10-16T06:36:57;14.80;99.90
3944;DHT22;1986;52.546;13.428;2022-10-16T06:39:24;15.00;99.90
3944;DHT22;1986;52.546;13.428;2022-10-16T06:41:51;15.00;99.90
3944;DHT22;1986;52.546;13.428;2022-10-16T06:44:19;15.00;99.90
3944;DHT22;1986;52.546;13.428;2022-10-16T06:46:48;15.20;99.90
3944;DHT22;1986;52.546;13.428;2022-10-16T06:49:18;15.20;99.90
3944;DHT22;1986;52.546;13.428;2022-10-16T06:51:48;15.20;99.90
3944;DHT22;1986;52.546;13.428;2022-10-16T06:54:15;15.30;99.90
3944;DHT22;1986;52.546;13.428;2022-10-16T06:56:44;15.30;99.90
3944;DHT22;1986;52.546;13.428;2022-10-16T06:59:11;15.40;99.90
3944;DHT22;1986;52.546;13.428;2022-10-16T07:01:42;15.40;99.90
3944;DHT22;1986;52.546;13.428;2022-10-16T07:04:12;15.50;99.90
3944;DHT22;1986;52.546;13.428;2022-10-16T07:06:39;15.40;99.90
3944;DHT22;1986;52.546;13.428;2022-10-16T07:09:10;15.70;99.90
3944;DHT22;1986;52.546;13.428;2022-10-16T07:11:38;15.70;99.90
3944;DHT22;1986;52.546;13.428;2022-10-16T07:14:15;15.80;99.90
3944;DHT22;1986;52.546;13.428;2022-10-16T07:16:43;15.90;99.90
3944;DHT22;1986;52.546;13.428;2022-10-16T07:19:10;16.10;99.90
3944;DHT22;1986;52.546;13.428;2022-10-16T07:21:39;16.30;99.90
3944;DHT22;1986;52.546;13.428;2022-10-16T07:24:12;16.40;99.90
3944;DHT22;1986;52.546;13.428;2022-10-16T07:26:42;16.60;99.90
3944;DHT22;1986;52.546;13.428;2022-10-16T07:29:13;16.80;99.90
3944;DHT22;1986;52.546;13.428;2022-10-16T07:31:40;16.60;99.90
3944;DHT22;1986;52.546;13.428;2022-10-16T07:34:09;16.60;99.90
3944;DHT22;1986;52.546;13.428;2022-10-16T07:36:39;16.60;99.90
3944;DHT22;1986;52.546;13.428;2022-10-16T07:39:08;16.70;99.90
3944;DHT22;1986;52.546;13.428;2022-10-16T07:41:37;16.70;99.90
3944;DHT22;1986;52.546;13.428;2022-10-16T07:44:04;16.80;99.90
3944;DHT22;1986;52.546;13.428;2022-10-16T07:46:35;16.90;99.90
3944;DHT22;1986;52.546;13.428;2022-10-16T07:49:02;17.00;99.90
3944;DHT22;1986;52.546;13.428;2022-10-16T07:51:32;17.10;99.90
3944;DHT22;1986;52.546;13.428;2022-10-16T07:54:03;17.10;99.90
3944;DHT22;1986;52.546;13.428;2022-10-16T07:56:32;17.00;99.90
3944;DHT22;1986;52.546;13.428;2022-10-16T07:58:59;17.00;99.90
3944;DHT22;1986;52.546;13.428;2022-10-16T08:01:26;17.10;99.90
3944;DHT22;1986;52.546;13.428;2022-10-16T08:03:52;17.00;99.90
3944;DHT22;1986;52.546;13.428;2022-10-16T08:06:21;17.00;99.90
3944;DHT22;1986;52.546;13.428;2022-10-16T08:08:50;17.10;99.90
3944;DHT22;1986;52.546;13.428;2022-10-16T08:11:17;17.20;99.90
3944;DHT22;1986;52.546;13.428;2022-10-16T08:13:44;17.30;99.90
3944;DHT22;1986;52.546;13.428;2022-10-16T08:16:13;17.30;99.90
3944;DHT22;1986;52.546;13.428;2022-10-16T08:18:42;17.30;99.90
3944;DHT22;1986;52.546;13.428;2022-10-16T08:21:14;17.30;99.90
3944;DHT22;1986;52.546;13.428;2022-10-16T08:23:42;17.40;99.90
3944;DHT22;1986;52.546;13.428;2022-10-16T08:26:13;17.50;99.90
3944;DHT22;1986;52.546;13.428;2022-10-16T08:28:40;17.60;99.90
3944;DHT22;1986;52.546;13.428;2022-10-16T08:31:09;17.60;99.90
3944;DHT22;1986;52.546;13.428;2022-10-16T08:33:37;17.70;99.90
3944;DHT22;1986;52.546;13.428;2022-10-16T08:36:04;17.70;99.90
3944;DHT22;1986;52.546;13.428;2022-10-16T08:38:33;17.80;99.90
3944;DHT22;1986;52.546;13.428;2022-10-16T08:41:16;17.80;99.90
3944;DHT22;1986;52.546;13.428;2022-10-16T08:47:04;17.70;99.90
3944;DHT22;1986;52.546;13.428;2022-10-16T08:49:35;17.60;99.90
3944;DHT22;1986;52.546;13.428;2022-10-16T08:52:03;17.70;99.90
3944;DHT22;1986;52.546;13.428;2022-10-16T08:54:43;17.70;99.90
3944;DHT22;1986;52.546;13.428;2022-10-16T08:57:16;17.70;99.90
3944;DHT22;1986;52.546;13.428;2022-10-16T08:59:45;17.60;99.90
3944;DHT22;1986;52.546;13.428;2022-10-16T09:02:24;17.60;99.90
3944;DHT22;1986;52.546;13.428;2022-10-16T09:05:22;17.60;99.90
3944;DHT22;1986;52.546;13.428;2022-10-16T09:07:56;17.70;99.90
3944;DHT22;1986;52.546;13.428;2022-10-16T09:10:33;17.60;99.90
3944;DHT22;1986;52.546;13.428;2022-10-16T09:13:14;17.70;99.90
3944;DHT22;1986;52.546;13.428;2022-10-16T09:15:53;17.90;99.90
3944;DHT22;1986;52.546;13.428;2022-10-16T09:18:26;17.90;99.90
3944;DHT22;1986;52.546;13.428;2022-10-16T09:20:58;17.80;99.90
3944;DHT22;1986;52.546;13.428;2022-10-16T09:23:28;17.70;99.90
3944;DHT22;1986;52.546;13.428;2022-10-16T09:25:56;17.70;99.90
3944;DHT22;1986;52.546;13.428;2022-10-16T09:28:26;17.70;99.90
3944;DHT22;1986;52.546;13.428;2022-10-16T09:30:56;17.80;99.90
3944;DHT22;1986;52.546;13.428;2022-10-16T09:33:25;17.90;99.90
3944;DHT22;1986;52.546;13.428;2022-10-16T09:35:56;18.00;99.90
3944;DHT22;1986;52.546;13.428;2022-10-16T09:38:28;18.00;99.90
3944;DHT22;1986;52.546;13.428;2022-10-16T09:40:56;18.10;99.90
3944;DHT22;1986;52.546;13.428;2022-10-16T09:43:27;18.10;99.90
3944;DHT22;1986;52.546;13.428;2022-10-16T09:46:00;18.00;99.90
3944;DHT22;1986;52.546;13.428;2022-10-16T09:48:33;18.10;99.90
3944;DHT22;1986;52.546;13.428;2022-10-16T09:51:05;18.30;99.90
3944;DHT22;1986;52.546;13.428;2022-10-16T09:53:42;18.40;99.90
3944;DHT22;1986;52.546;13.428;2022-10-16T09:56:11;18.30;99.90
3944;DHT22;1986;52.546;13.428;2022-10-16T09:58:49;18.20;99.90
3944;DHT22;1986;52.546;13.428;2022-10-16T10:01:20;18.10;99.90
3944;DHT22;1986;52.546;13.428;2022-10-16T10:03:48;18.10;99.90
3944;DHT22;1986;52.546;13.428;2022-10-16T10:06:24;18.30;99.90
3944;DHT22;1986;52.546;13.428;2022-10-16T10:08:56;18.50;99.90
3944;DHT22;1986;52.546;13.428;2022-10-16T10:11:42;18.60;99.90
3944;DHT22;1986;52.546;13.428;2022-10-16T10:14:16;18.60;99.90
3944;DHT22;1986;52.546;13.428;2022-10-16T10:16:43;18.40;99.90
3944;DHT22;1986;52.546;13.428;2022-10-16T10:19:14;18.40;99.90
3944;DHT22;1986;52.546;13.428;2022-10-16T10:21:41;18.50;99.90
3944;DHT22;1986;52.546;13.428;2022-10-16T10:24:11;18.60;99.90
3944;DHT22;1986;52.546;13.428;2022-10-16T10:26:39;18.50;99.90
3944;DHT22;1986;52.546;13.428;2022-10-16T10:29:16;18.40;99.90
3944;DHT22;1986;52.546;13.428;2022-10-16T10:31:50;18.40;99.90
3944;DHT22;1986;52.546;13.428;2022-10-16T10:34:34;18.30;99.90
3944;DHT22;1986;52.546;13.428;2022-10-16T10:37:08;18.40;99.90
3944;DHT22;1986;52.546;13.428;2022-10-16T10:39:53;18.30;99.90
3944;DHT22;1986;52.546;13.428;2022-10-16T10:42:29;18.40;99.90
3944;DHT22;1986;52.546;13.428;2022-10-16T10:45:17;18.30;99.90
3944;DHT22;1986;52.546;13.428;2022-10-16T10:48:06;18.30;99.90
3944;DHT22;1986;52.546;13.428;2022-10-16T10:50:45;18.40;99.90
3944;DHT22;1986;52.546;13.428;2022-10-16T10:53:25;18.50;99.90
3944;DHT22;1986;52.546;13.428;2022-10-16T10:56:04;18.50;99.90
3944;DHT22;1986;52.546;13.428;2022-10-16T11:01:40;18.60;99.90
3944;DHT22;1986;52.546;13.428;2022-10-16T11:04:34;18.60;99.90
3944;DHT22;1986;52.546;13.428;2022-10-16T11:07:05;18.80;99.90
3944;DHT22;1986;52.546;13.428;2022-10-16T11:09:36;18.90;99.90
3944;DHT22;1986;52.546;13.428;2022-10-16T11:12:08;19.00;99.90
3944;DHT22;1986;52.546;13.428;2022-10-16T11:14:42;19.20;99.90
3944;DHT22;1986;52.546;13.428;2022-10-16T11:17:17;19.30;99.90
3944;DHT22;1986;52.546;13.428;2022-10-16T11:19:48;19.30;99.90
3944;DHT22;1986;52.546;13.428;2022-10-16T11:22:22;19.30;99.90
3944;DHT22;1986;52.546;13.428;2022-10-16T11:24:55;19.30;99.90
3944;DHT22;1986;52.546;13.428;2022-10-16T11:27:38;19.20;99.90
3944;DHT22;1986;52.546;13.428;2022-10-16T11:30:14;19.20;99.90
3944;DHT22;1986;52.546;13.428;2022-10-16T11:32:57;19.20;99.90
3944;DHT22;1986;52.546;13.428;2022-10-16T11:35:41;19.20;99.90
3944;DHT22;1986;52.546;13.428;2022-10-16T11:38:15;19.20;99.90
3944;DHT22;1986;52.546;13.428;2022-10-16T11:40:47;19.20;99.90
3944;DHT22;1986;52.546;13.428;2022-10-16T11:43:21;19.20;99.90
3944;DHT22;1986;52.546;13.428;2022-10-16T11:45:52;19.20;99.90
3944;DHT22;1986;52.546;13.428;2022-10-16T11:48:27;19.10;99.90
3944;DHT22;1986;52.546;13.428;2022-10-16T11:51:00;19.10;99.90
3944;DHT22;1986;52.546;13.428;2022-10-16T11:53:39;19.10;99.90
3944;DHT22;1986;52.546;13.428;2022-10-16T11:56:12;19.00;99.90
3944;DHT22;1986;52.546;13.428;2022-10-16T11:58:45;19.10;99.90
3944;DHT22;1986;52.546;13.428;2022-10-16T12:01:18;19.10;99.90
3944;DHT22;1986;52.546;13.428;2022-10-16T12:03:59;19.00;99.90
3944;DHT22;1986;52.546;13.428;2022-10-16T12:06:32;18.90;99.90
3944;DHT22;1986;52.546;13.428;2022-10-16T12:09:00;18.90;99.90
3944;DHT22;1986;52.546;13.428;2022-10-16T12:11:34;18.90;99.90
3944;DHT22;1986;52.546;13.428;2022-10-16T12:14:07;18.90;99.90
3944;DHT22;1986;52.546;13.428;2022-10-16T12:16:36;18.80;99.90
3944;DHT22;1986;52.546;13.428;2022-10-16T12:19:11;18.90;99.90
3944;DHT22;1986;52.546;13.428;2022-10-16T12:21:39;19.20;99.90
3944;DHT22;1986;52.546;13.428;2022-10-16T12:24:21;19.30;99.90
3944;DHT22;1986;52.546;13.428;2022-10-16T12:26:52;19.30;99.90
3944;DHT22;1986;52.546;13.428;2022-10-16T12:29:26;19.30;99.90
3944;DHT22;1986;52.546;13.428;2022-10-16T12:31:55;19.40;99.90
3944;DHT22;1986;52.546;13.428;2022-10-16T12:34:28;19.40;99.90
3944;DHT22;1986;52.546;13.428;2022-10-16T12:36:56;19.40;99.90
3944;DHT22;1986;52.546;13.428;2022-10-16T12:39:33;19.40;99.90
3944;DHT22;1986;52.546;13.428;2022-10-16T12:42:03;19.50;99.90
3944;DHT22;1986;52.546;13.428;2022-10-16T12:44:35;19.50;99.90
3944;DHT22;1986;52.546;13.428;2022-10-16T12:47:02;19.60;99.90
3944;DHT22;1986;52.546;13.428;2022-10-16T12:49:37;19.60;99.90
3944;DHT22;1986;52.546;13.428;2022-10-16T12:52:25;19.70;99.90
3944;DHT22;1986;52.546;13.428;2022-10-16T12:54:56;19.70;99.90
3944;DHT22;1986;52.546;13.428;2022-10-16T12:57:34;19.80;99.90
3944;DHT22;1986;52.546;13.428;2022-10-16T13:00:13;19.70;99.90
3944;DHT22;1986;52.546;13.428;2022-10-16T13:05:54;19.60;99.90
3944;DHT22;1986;52.546;13.428;2022-10-16T13:08:41;19.60;99.90
3944;DHT22;1986;52.546;13.428;2022-10-16T13:11:18;19.60;99.90
3944;DHT22;1986;52.546;13.428;2022-10-16T13:14:02;19.60;99.90
3944;DHT22;1986;52.546;13.428;2022-10-16T13:16:41;19.60;99.90
3944;DHT22;1986;52.546;13.428;2022-10-16T13:19:19;19.80;99.90
3944;DHT22;1986;52.546;13.428;2022-10-16T13:21:56;19.90;99.90
3944;DHT22;1986;52.546;13.428;2022-10-16T13:24:45;19.80;99.90
3944;DHT22;1986;52.546;13.428;2022-10-16T13:27:20;19.70;99.90
3944;DHT22;1986;52.546;13.428;2022-10-16T13:29:54;19.70;99.90
3944;DHT22;1986;52.546;13.428;2022-10-16T13:32:26;19.60;99.90
3944;DHT22;1986;52.546;13.428;2022-10-16T13:34:53;19.60;99.90
3944;DHT22;1986;52.546;13.428;2022-10-16T13:37:23;19.60;99.90
3944;DHT22;1986;52.546;13.428;2022-10-16T13:40:04;19.70;99.90
3944;DHT22;1986;52.546;13.428;2022-10-16T13:42:36;19.70;99.90
3944;DHT22;1986;52.546;13.428;2022-10-16T13:45:16;19.70;99.90
3944;DHT22;1986;52.546;13.428;2022-10-16T13:47:43;19.70;99.90
3944;DHT22;1986;52.546;13.428;2022-10-16T13:50:14;19.80;99.90
3944;DHT22;1986;52.546;13.428;2022-10-16T13:52:43;19.80;99.90
3944;DHT22;1986;52.546;13.428;2022-10-16T13:55:11;19.80;99.90
3944;DHT22;1986;52.546;13.428;2022-10-16T13:57:38;19.90;99.90
3944;DHT22;1986;52.546;13.428;2022-10-16T14:00:18;19.90;99.90
3944;DHT22;1986;52.546;13.428;2022-10-16T14:02:50;19.90;99.90
3944;DHT22;1986;52.546;13.428;2022-10-16T14:05:18;19.80;99.90
3944;DHT22;1986;52.546;13.428;2022-10-16T14:07:49;19.80;99.90
3944;DHT22;1986;52.546;13.428;2022-10-16T14:10:23;19.80;99.90
3944;DHT22;1986;52.546;13.428;2022-10-16T14:12:59;19.80;99.90
3944;DHT22;1986;52.546;13.428;2022-10-16T14:15:26;19.80;99.90
3944;DHT22;1986;52.546;13.428;2022-10-16T14:17:53;19.80;99.90
3944;DHT22;1986;52.546;13.428;2022-10-16T14:20:24;19.80;99.90
3944;DHT22;1986;52.546;13.428;2022-10-16T14:23:01;19.80;99.90
3944;DHT22;1986;52.546;13.428;2022-10-16T14:25:29;19.80;99.90
3944;DHT22;1986;52.546;13.428;2022-10-16T14:27:59;19.70;99.90
3944;DHT22;1986;52.546;13.428;2022-10-16T14:30:27;19.70;99.90
3944;DHT22;1986;52.546;13.428;2022-10-16T14:32:56;19.70;99.90
3944;DHT22;1986;52.546;13.428;2022-10-16T14:35:25;19.70;99.90
3944;DHT22;1986;52.546;13.428;2022-10-16T14:37:53;19.70;99.90
3944;DHT22;1986;52.546;13.428;2022-10-16T14:40:24;19.70;99.90
3944;DHT22;1986;52.546;13.428;2022-10-16T14:42:51;19.70;99.90
3944;DHT22;1986;52.546;13.428;2022-10-16T14:45:20;19.70;99.90
3944;DHT22;1986;52.546;13.428;2022-10-16T14:47:50;19.70;99.90
3944;DHT22;1986;52.546;13.428;2022-10-16T14:50:18;19.70;99.90
3944;DHT22;1986;52.546;13.428;2022-10-16T14:52:45;19.70;99.90
3944;DHT22;1986;52.546;13.428;2022-10-16T14:55:12;19.60;99.90
3944;DHT22;1986;52.546;13.428;2022-10-16T14:57:40;19.60;99.90
3944;DHT22;1986;52.546;13.428;2022-10-16T15:00:15;19.60;99.90
3944;DHT22;1986;52.546;13.428;2022-10-16T15:02:42;19.60;99.90
3944;DHT22;1986;52.546;13.428;2022-10-16T15:05:16;19.60;99.90
3944;DHT22;1986;52.546;13.428;2022-10-16T15:07:43;19.50;99.90
3944;DHT22;1986;52.546;13.428;2022-10-16T15:10:10;19.50;99.90
3944;DHT22;1986;52.546;13.428;2022-10-16T15:12:40;19.50;99.90
3944;DHT22;1986;52.546;13.428;2022-10-16T15:15:24;19.40;99.90
3944;DHT22;1986;52.546;13.428;2022-10-16T15:17:52;19.40;99.90
3944;DHT22;1986;52.546;13.428;2022-10-16T15:20:22;19.40;99.90
3944;DHT22;1986;52.546;13.428;2022-10-16T15:22:49;19.40;99.90
3944;DHT22;1986;52.546;13.428;2022-10-16T15:25:30;19.30;99.90
3944;DHT22;1986;52.546;13.428;2022-10-16T15:27:58;19.20;99.90
3944;DHT22;1986;52.546;13.428;2022-10-16T15:30:26;19.20;99.90
3944;DHT22;1986;52.546;13.428;2022-10-16T15:32:53;19.20;99.90
3944;DHT22;1986;52.546;13.428;2022-10-16T15:35:21;19.20;99.90
3944;DHT22;1986;52.546;13.428;2022-10-16T15:37:48;19.20;99.90
3944;DHT22;1986;52.546;13.428;2022-10-16T15:40:18;19.20;99.90
3944;DHT22;1986;52.546;13.428;2022-10-16T15:42:45;19.10;99.90
3944;DHT22;1986;52.546;13.428;2022-10-16T15:45:14;19.10;99.90
3944;DHT22;1986;52.546;13.428;2022-10-16T15:47:45;19.10;99.90
3944;DHT22;1986;52.546;13.428;2022-10-16T15:50:12;19.00;99.90
3944;DHT22;1986;52.546;13.428;2022-10-16T15:52:40;19.00;99.90
3944;DHT22;1986;52.546;13.428;2022-10-16T15:55:12;18.90;99.90
3944;DHT22;1986;52.546;13.428;2022-10-16T15:57:42;18.90;99.90
3944;DHT22;1986;52.546;13.428;2022-10-16T16:00:18;18.80;99.90
3944;DHT22;1986;52.546;13.428;2022-10-16T16:02:53;18.80;99.90
3944;DHT22;1986;52.546;13.428;2022-10-16T16:05:21;18.80;99.90
3944;DHT22;1986;52.546;13.428;2022-10-16T16:07:53;18.70;99.90
3944;DHT22;1986;52.546;13.428;2022-10-16T16:10:25;18.70;99.90
3944;DHT22;1986;52.546;13.428;2022-10-16T16:12:54;18.70;99.90
3944;DHT22;1986;52.546;13.428;2022-10-16T16:15:24;18.50;99.90
3944;DHT22;1986;52.546;13.428;2022-10-16T16:17:51;18.50;99.90